createdAt,value
2018-07-30T00:00:16.130Z,54.10
2018-07-30T00:02:44.896Z,54.23
2018-07-30T00:05:12.997Z,54.13
2018-07-30T00:07:41.479Z,51.79
2018-07-30T00:10:09.519Z,51.37
2018-07-30T00:12:37.942Z,50.46
2018-07-30T00:15:06.083Z,49.59
2018-07-30T00:17:34.132Z,48.68
2018-07-30T00:20:02.200Z,48.39
2018-07-30T00:22:30.247Z,48.20
2018-07-30T00:24:58.561Z,46.82
2018-07-30T00:27:26.808Z,47.44
2018-07-30T00:29:55.218Z,46.91
2018-07-30T00:32:23.681Z,46.62
2018-07-30T00:34:52.052Z,46.82
2018-07-30T00:37:20.732Z,46.44
2018-07-30T00:39:49.171Z,46.45
2018-07-30T00:42:18.921Z,47.11
2018-07-30T00:44:47.302Z,47.07
2018-07-30T00:47:15.470Z,46.70
2018-07-30T00:49:43.535Z,47.02
2018-07-30T00:52:11.591Z,47.13
2018-07-30T00:54:39.667Z,46.56
2018-07-30T00:57:07.712Z,46.54
2018-07-30T00:59:36.072Z,47.08
2018-07-30T01:02:04.139Z,47.04
2018-07-30T01:04:32.159Z,46.51
2018-07-30T01:07:00.243Z,46.63
2018-07-30T01:09:28.313Z,46.76
2018-07-30T01:11:59.570Z,46.60
2018-07-30T01:14:27.705Z,47.21
2018-07-30T01:16:55.659Z,46.65
2018-07-30T01:19:23.759Z,46.67
2018-07-30T01:21:51.791Z,46.40
2018-07-30T01:24:19.847Z,47.18
2018-07-30T01:26:47.890Z,46.64
2018-07-30T01:29:15.934Z,46.45
2018-07-30T01:31:43.990Z,46.55
2018-07-30T01:34:12.024Z,46.38
2018-07-30T01:36:40.066Z,47.04
2018-07-30T01:39:08.336Z,46.46
2018-07-30T01:41:36.389Z,46.66
2018-07-30T01:44:04.416Z,46.34
2018-07-30T01:46:32.464Z,46.75
2018-07-30T01:49:00.486Z,46.40
2018-07-30T01:51:28.575Z,46.77
2018-07-30T01:53:56.600Z,46.62
2018-07-30T01:56:24.638Z,47.25
2018-07-30T01:58:52.688Z,47.08
2018-07-30T02:01:20.770Z,47.34
2018-07-30T02:03:48.811Z,47.81
2018-07-30T02:06:17.088Z,49.06
2018-07-30T02:08:45.161Z,49.66
2018-07-30T02:11:13.192Z,49.58
2018-07-30T02:13:41.263Z,50.34
2018-07-30T02:16:09.304Z,50.71
2018-07-30T02:18:37.361Z,50.49
2018-07-30T02:21:05.416Z,51.15
2018-07-30T02:23:33.479Z,51.59
2018-07-30T02:26:01.586Z,51.53
2018-07-30T02:28:29.701Z,52.09
2018-07-30T02:30:57.940Z,52.17
2018-07-30T02:33:26.273Z,51.67
2018-07-30T02:35:54.615Z,52.31
2018-07-30T02:38:23.064Z,52.29
2018-07-30T02:40:51.648Z,51.71
2018-07-30T02:43:20.517Z,51.33
2018-07-30T02:45:49.033Z,51.05
2018-07-30T02:48:17.413Z,51.28
2018-07-30T02:50:45.611Z,50.73
2018-07-30T02:53:13.715Z,50.04
2018-07-30T02:55:41.771Z,50.79
2018-07-30T02:58:09.828Z,50.40
2018-07-30T03:00:37.855Z,50.84
2018-07-30T03:03:05.911Z,50.76
2018-07-30T03:05:34.016Z,50.70
2018-07-30T03:08:02.160Z,50.68
2018-07-30T03:10:30.241Z,50.35
2018-07-30T03:12:58.422Z,50.87
2018-07-30T03:15:26.622Z,51.01
2018-07-30T03:17:54.844Z,50.83
2018-07-30T03:20:23.120Z,50.97
2018-07-30T03:22:51.627Z,50.69
2018-07-30T03:25:20.158Z,50.71
2018-07-30T03:27:48.587Z,50.50
2018-07-30T03:30:16.803Z,50.61
2018-07-30T03:32:44.972Z,51.26
2018-07-30T03:35:13.036Z,50.61
2018-07-30T03:37:41.068Z,51.02
2018-07-30T03:40:09.103Z,50.79
2018-07-30T03:42:37.359Z,51.56
2018-07-30T03:45:06.832Z,50.95
2018-07-30T03:47:34.929Z,51.66
2018-07-30T03:50:02.982Z,52.53
2018-07-30T03:52:31.100Z,53.15
2018-07-30T03:54:59.432Z,52.57
2018-07-30T03:57:27.725Z,53.62
2018-07-30T03:59:55.985Z,53.70
2018-07-30T04:02:23.968Z,53.19
2018-07-30T04:04:52.013Z,54.02
2018-07-30T04:07:20.035Z,53.68
2018-07-30T04:09:48.068Z,53.76
2018-07-30T04:12:16.083Z,53.87
2018-07-30T04:14:44.108Z,53.83
2018-07-30T04:17:12.178Z,53.93
2018-07-30T04:19:40.242Z,53.76
2018-07-30T04:22:08.301Z,53.92
2018-07-30T04:24:36.303Z,54.27
2018-07-30T04:27:04.319Z,54.55
2018-07-30T04:29:32.359Z,54.92
2018-07-30T04:32:00.392Z,54.34
2018-07-30T04:34:28.435Z,54.78
2018-07-30T04:36:56.463Z,54.90
2018-07-30T04:39:24.497Z,54.33
2018-07-30T04:41:52.527Z,53.95
2018-07-30T04:44:20.552Z,54.00
2018-07-30T04:46:48.844Z,53.53
2018-07-30T04:49:16.923Z,52.74
2018-07-30T04:51:44.916Z,51.09
2018-07-30T04:54:12.963Z,49.50
2018-07-30T04:56:41.015Z,47.35
2018-07-30T04:59:09.051Z,46.67
2018-07-30T05:01:37.184Z,46.39
2018-07-30T05:04:05.224Z,45.42
2018-07-30T05:06:33.259Z,45.00
2018-07-30T05:09:01.313Z,43.61
2018-07-30T05:11:29.376Z,44.15
2018-07-30T05:13:57.423Z,42.02
2018-07-30T05:16:25.473Z,42.08
2018-07-30T05:18:53.918Z,40.60
2018-07-30T05:21:21.944Z,41.23
2018-07-30T05:23:49.984Z,39.97
2018-07-30T05:26:18.047Z,39.40
2018-07-30T05:28:46.263Z,38.18
2018-07-30T05:31:14.303Z,37.17
2018-07-30T05:33:42.344Z,35.88
2018-07-30T05:36:10.404Z,35.74
2018-07-30T05:38:38.465Z,34.39
2018-07-30T05:41:07.321Z,32.74
2018-07-30T05:43:35.423Z,32.96
2018-07-30T05:46:03.476Z,31.18
2018-07-30T05:48:34.271Z,31.34
2018-07-30T05:51:02.528Z,31.67
2018-07-30T05:53:30.747Z,30.22
2018-07-30T05:55:59.467Z,31.48
2018-07-30T05:58:27.759Z,31.87
2018-07-30T06:00:56.041Z,31.88
2018-07-30T06:03:24.135Z,31.68
2018-07-30T06:05:52.173Z,32.51
2018-07-30T06:08:20.222Z,32.72
2018-07-30T06:10:48.439Z,34.10
2018-07-30T06:13:16.513Z,32.57
2018-07-30T06:15:44.543Z,31.52
2018-07-30T06:18:12.614Z,31.71
2018-07-30T06:20:40.659Z,30.81
2018-07-30T06:23:08.708Z,30.41
2018-07-30T06:25:36.750Z,29.92
2018-07-30T06:28:04.839Z,29.92
2018-07-30T06:30:32.911Z,28.60
2018-07-30T06:33:00.927Z,28.72
2018-07-30T06:35:28.994Z,27.37
2018-07-30T06:37:57.035Z,27.39
2018-07-30T06:40:25.154Z,25.29
2018-07-30T06:42:53.195Z,25.28
2018-07-30T06:45:21.223Z,24.55
2018-07-30T06:47:50.367Z,23.80
2018-07-30T06:50:19.262Z,23.69
2018-07-30T06:52:47.903Z,21.38
2018-07-30T06:55:16.013Z,22.87
2018-07-30T06:57:44.108Z,22.61
2018-07-30T07:00:12.157Z,22.68
2018-07-30T07:02:40.589Z,22.40
2018-07-30T07:05:09.967Z,21.03
2018-07-30T07:07:38.029Z,22.38
2018-07-30T07:10:08.212Z,22.60
2018-07-30T07:12:36.274Z,22.25
2018-07-30T07:15:04.600Z,22.38
2018-07-30T07:17:32.644Z,21.76
2018-07-30T07:20:00.683Z,22.45
2018-07-30T07:22:28.714Z,22.30
2018-07-30T07:24:56.783Z,22.06
2018-07-30T07:27:24.878Z,21.90
2018-07-30T07:29:53.176Z,22.55
2018-07-30T07:32:21.211Z,22.47
2018-07-30T07:34:49.262Z,22.96
2018-07-30T07:37:17.299Z,22.42
2018-07-30T07:39:45.352Z,22.85
2018-07-30T07:42:13.401Z,22.46
2018-07-30T07:44:41.419Z,22.14
2018-07-30T07:47:09.453Z,22.12
2018-07-30T07:49:37.495Z,22.27
2018-07-30T07:52:05.579Z,22.44
2018-07-30T07:54:33.615Z,22.29
2018-07-30T07:57:01.705Z,21.60
2018-07-30T07:59:29.734Z,21.76
2018-07-30T08:01:57.879Z,21.84
2018-07-30T08:04:25.928Z,21.66
2018-07-30T08:06:53.976Z,22.32
2018-07-30T08:09:21.999Z,21.77
2018-07-30T08:11:50.082Z,22.03
2018-07-30T08:14:18.135Z,22.10
2018-07-30T08:16:46.171Z,23.15
2018-07-30T08:19:14.260Z,23.08
2018-07-30T08:21:42.323Z,22.37
2018-07-30T08:24:10.384Z,23.09
2018-07-30T08:26:38.408Z,23.19
2018-07-30T08:29:06.497Z,23.06
2018-07-30T08:31:34.548Z,24.02
2018-07-30T08:34:02.589Z,23.78
2018-07-30T08:36:30.740Z,23.97
2018-07-30T08:38:58.767Z,23.91
2018-07-30T08:41:26.804Z,24.18
2018-07-30T08:43:54.856Z,24.32
2018-07-30T08:46:22.881Z,24.25
2018-07-30T08:48:51.816Z,24.08
2018-07-30T08:51:20.633Z,23.04
2018-07-30T08:53:50.100Z,23.98
2018-07-30T08:56:18.984Z,24.05
2018-07-30T08:58:47.103Z,24.04
2018-07-30T09:01:15.211Z,23.27
2018-07-30T09:03:43.268Z,23.36
2018-07-30T09:06:11.344Z,24.12
2018-07-30T09:08:39.431Z,24.96
2018-07-30T09:11:07.458Z,24.64
2018-07-30T09:13:35.523Z,25.41
2018-07-30T09:16:03.579Z,25.33
2018-07-30T09:18:31.747Z,25.60
2018-07-30T09:21:00.073Z,25.51
2018-07-30T09:23:28.246Z,26.15
2018-07-30T09:25:56.286Z,26.62
2018-07-30T09:28:24.301Z,26.84
2018-07-30T09:30:52.352Z,27.20
2018-07-30T09:33:20.393Z,26.78
2018-07-30T09:35:48.445Z,26.51
2018-07-30T09:38:16.473Z,26.68
2018-07-30T09:40:44.520Z,26.28
2018-07-30T09:43:12.554Z,26.67
2018-07-30T09:45:40.592Z,26.61
2018-07-30T09:48:08.660Z,26.83
2018-07-30T09:50:36.700Z,26.83
2018-07-30T09:53:04.747Z,27.24
2018-07-30T09:55:32.832Z,27.26
2018-07-30T09:58:00.879Z,26.76
2018-07-30T10:00:34.200Z,25.50
2018-07-30T10:03:02.228Z,25.66
2018-07-30T10:05:30.291Z,24.85
2018-07-30T10:07:58.298Z,25.47
2018-07-30T10:10:26.351Z,25.41
2018-07-30T10:12:54.421Z,24.96
2018-07-30T10:15:22.478Z,26.15
2018-07-30T10:17:50.536Z,26.68
2018-07-30T10:20:18.595Z,26.37
2018-07-30T10:22:46.713Z,25.74
2018-07-30T10:25:14.767Z,24.98
2018-07-30T10:27:42.986Z,25.45
2018-07-30T10:30:11.157Z,25.87
2018-07-30T10:32:39.217Z,26.54
2018-07-30T10:35:07.319Z,26.82
2018-07-30T10:37:35.360Z,26.79
2018-07-30T10:40:03.548Z,25.81
2018-07-30T10:42:31.666Z,25.90
2018-07-30T10:44:59.855Z,25.78
2018-07-30T10:47:28.202Z,26.81
2018-07-30T10:49:56.897Z,27.07
2018-07-30T10:52:25.365Z,27.54
2018-07-30T10:54:53.912Z,27.54
2018-07-30T10:57:22.640Z,27.52
2018-07-30T10:59:51.669Z,26.55
2018-07-30T11:02:20.939Z,27.07
2018-07-30T11:04:49.087Z,27.26
2018-07-30T11:07:17.639Z,26.81
2018-07-30T11:09:45.890Z,27.20
2018-07-30T11:12:13.952Z,27.55
2018-07-30T11:14:42.015Z,27.58
2018-07-30T11:17:10.052Z,27.28
2018-07-30T11:19:38.132Z,27.06
2018-07-30T11:22:06.272Z,27.64
2018-07-30T11:24:34.907Z,27.37
2018-07-30T11:27:02.993Z,27.47
2018-07-30T11:29:31.625Z,28.00
2018-07-30T11:32:00.199Z,28.08
2018-07-30T11:34:28.509Z,28.13
2018-07-30T11:36:57.001Z,28.13
2018-07-30T11:39:25.051Z,27.87
2018-07-30T11:41:53.067Z,27.38
2018-07-30T11:44:21.099Z,28.12
2018-07-30T11:46:49.155Z,28.13
2018-07-30T11:49:17.195Z,27.48
2018-07-30T11:51:45.227Z,28.16
2018-07-30T11:54:13.318Z,28.56
2018-07-30T11:56:41.313Z,28.71
2018-07-30T11:59:09.375Z,28.91
2018-07-30T12:01:37.451Z,29.22
2018-07-30T12:04:05.510Z,28.06
2018-07-30T12:06:33.591Z,28.24
2018-07-30T12:09:01.635Z,28.15
2018-07-30T12:11:29.684Z,28.18
2018-07-30T12:13:57.707Z,28.35
2018-07-30T12:16:27.891Z,28.61
2018-07-30T12:18:58.724Z,28.86
2018-07-30T12:21:28.095Z,28.39
2018-07-30T12:23:58.818Z,27.70
2018-07-30T12:26:27.820Z,27.85
2018-07-30T12:28:58.259Z,28.25
2018-07-30T12:31:27.010Z,27.82
2018-07-30T12:33:58.127Z,28.06
2018-07-30T12:36:27.515Z,27.59
2018-07-30T12:38:57.414Z,28.49
2018-07-30T12:41:27.842Z,27.33
2018-07-30T12:43:58.502Z,27.49
2018-07-30T12:46:27.527Z,27.85
2018-07-30T12:48:57.796Z,28.40
2018-07-30T12:51:26.188Z,27.64
2018-07-30T12:53:55.498Z,28.04
2018-07-30T12:56:24.100Z,27.52
2018-07-30T12:58:52.803Z,27.52
2018-07-30T13:01:21.713Z,26.95
2018-07-30T13:03:50.444Z,26.86
2018-07-30T13:06:19.555Z,26.50
2018-07-30T13:08:47.904Z,26.86
2018-07-30T13:11:15.977Z,26.76
2018-07-30T13:13:44.048Z,26.30
2018-07-30T13:16:12.093Z,25.97
2018-07-30T13:18:40.140Z,25.99
2018-07-30T13:21:08.191Z,25.75
2018-07-30T13:23:36.211Z,26.03
2018-07-30T13:26:04.412Z,26.37
2018-07-30T13:28:32.426Z,27.14
2018-07-30T13:31:00.492Z,27.04
2018-07-30T13:33:29.301Z,27.38
2018-07-30T13:35:57.352Z,26.99
2018-07-30T13:38:25.485Z,27.20
2018-07-30T13:40:53.530Z,26.80
2018-07-30T13:43:21.589Z,27.19
2018-07-30T13:45:49.689Z,27.35
2018-07-30T13:48:17.730Z,27.14
2018-07-30T13:50:45.767Z,27.75
2018-07-30T13:53:13.811Z,27.52
2018-07-30T13:55:41.863Z,27.00
2018-07-30T13:58:09.909Z,27.71
2018-07-30T14:00:37.963Z,27.47
2018-07-30T14:03:06.227Z,27.74
2018-07-30T14:05:34.316Z,27.24
2018-07-30T14:08:02.352Z,26.35
2018-07-30T14:10:30.452Z,26.93
2018-07-30T14:12:58.555Z,27.25
2018-07-30T14:15:26.602Z,26.36
2018-07-30T14:17:54.626Z,27.81
2018-07-30T14:20:22.698Z,27.19
2018-07-30T14:22:50.749Z,26.51
2018-07-30T14:25:18.800Z,26.97
2018-07-30T14:27:46.855Z,26.80
2018-07-30T14:30:14.935Z,26.39
2018-07-30T14:32:43.023Z,26.41
2018-07-30T14:35:11.103Z,27.46
2018-07-30T14:37:39.159Z,27.02
2018-07-30T14:40:09.727Z,27.33
2018-07-30T14:42:37.969Z,26.61
2018-07-30T14:45:06.310Z,26.76
2018-07-30T14:47:34.345Z,26.89
2018-07-30T14:50:02.383Z,26.70
2018-07-30T14:52:30.419Z,27.27
2018-07-30T14:54:58.473Z,26.88
2018-07-30T14:57:26.774Z,27.33
2018-07-30T14:59:55.703Z,27.15
2018-07-30T15:02:24.293Z,27.67
2018-07-30T15:04:53.481Z,27.33
2018-07-30T15:07:22.489Z,27.81
2018-07-30T15:09:51.178Z,27.52
2018-07-30T15:12:19.778Z,27.01
2018-07-30T15:14:47.779Z,28.03
2018-07-30T15:17:15.840Z,28.15
2018-07-30T15:19:44.272Z,28.15
2018-07-30T15:22:12.825Z,27.86
2018-07-30T15:24:41.163Z,28.36
2018-07-30T15:27:10.059Z,29.00
2018-07-30T15:29:38.479Z,28.95
2018-07-30T15:32:06.758Z,28.85
2018-07-30T15:34:35.343Z,28.55
2018-07-30T15:37:03.562Z,28.40
2018-07-30T15:39:32.765Z,29.28
2018-07-30T15:42:01.020Z,28.88
2018-07-30T15:44:29.314Z,29.03
2018-07-30T15:46:58.051Z,29.37
2018-07-30T15:49:26.434Z,29.48
2018-07-30T15:51:54.845Z,29.99
2018-07-30T15:54:23.293Z,30.27
2018-07-30T15:56:52.320Z,30.00
2018-07-30T15:59:21.103Z,28.76
2018-07-30T16:01:49.672Z,29.45
2018-07-30T16:04:19.325Z,29.64
2018-07-30T16:06:47.807Z,29.73
2018-07-30T16:09:16.117Z,29.68
2018-07-30T16:11:44.422Z,29.82
2018-07-30T16:14:12.484Z,29.73
2018-07-30T16:16:40.532Z,28.56
2018-07-30T16:19:08.558Z,29.29
2018-07-30T16:21:36.603Z,28.78
2018-07-30T16:24:04.688Z,28.54
2018-07-30T16:26:32.908Z,27.90
2018-07-30T16:29:01.159Z,28.33
2018-07-30T16:31:29.512Z,28.99
2018-07-30T16:33:57.949Z,28.51
2018-07-30T16:36:26.373Z,28.69
2018-07-30T16:38:54.774Z,29.19
2018-07-30T16:41:23.709Z,29.04
2018-07-30T16:43:52.238Z,28.29
2018-07-30T16:46:21.095Z,28.05
2018-07-30T16:48:49.473Z,28.74
2018-07-30T16:51:17.571Z,28.43
2018-07-30T16:53:45.743Z,28.51
2018-07-30T16:56:13.970Z,28.96
2018-07-30T16:58:42.046Z,28.77
2018-07-30T17:01:10.093Z,28.96
2018-07-30T17:03:38.124Z,28.31
2018-07-30T17:06:06.219Z,28.61
2018-07-30T17:08:34.247Z,28.56
2018-07-30T17:11:02.289Z,28.94
2018-07-30T17:13:30.563Z,28.83
2018-07-30T17:15:58.651Z,28.67
2018-07-30T17:18:26.715Z,28.18
2018-07-30T17:20:54.747Z,28.99
2018-07-30T17:23:22.779Z,28.68
2018-07-30T17:25:50.826Z,29.61
2018-07-30T17:28:18.855Z,29.55
2018-07-30T17:30:47.124Z,29.64
2018-07-30T17:33:15.151Z,30.15
2018-07-30T17:35:43.296Z,30.29
2018-07-30T17:38:11.554Z,30.26
2018-07-30T17:40:39.559Z,29.82
2018-07-30T17:43:07.624Z,30.27
2018-07-30T17:45:35.855Z,29.44
2018-07-30T17:48:03.875Z,29.17
2018-07-30T17:50:31.896Z,29.77
2018-07-30T17:53:00.044Z,29.84
2018-07-30T17:55:28.107Z,29.68
2018-07-30T17:57:56.381Z,28.72
2018-07-30T18:00:24.430Z,29.07
2018-07-30T18:02:52.489Z,29.69
2018-07-30T18:05:20.811Z,29.70
2018-07-30T18:07:50.148Z,29.80
2018-07-30T18:10:18.211Z,30.52
2018-07-30T18:12:46.632Z,30.35
2018-07-30T18:15:14.658Z,29.87
2018-07-30T18:17:42.714Z,29.38
2018-07-30T18:20:10.763Z,29.55
2018-07-30T18:22:38.880Z,28.99
2018-07-30T18:25:06.902Z,29.41
2018-07-30T18:27:34.955Z,29.31
2018-07-30T18:30:03.007Z,29.58
2018-07-30T18:32:31.052Z,28.99
2018-07-30T18:34:59.075Z,29.22
2018-07-30T18:37:27.168Z,29.52
2018-07-30T18:39:55.272Z,29.95
2018-07-30T18:42:23.315Z,30.14
2018-07-30T18:44:51.909Z,29.96
2018-07-30T18:47:20.325Z,30.42
2018-07-30T18:49:48.647Z,30.22
2018-07-30T18:52:16.682Z,30.56
2018-07-30T18:54:44.746Z,30.53
2018-07-30T18:57:12.800Z,31.56
2018-07-30T18:59:40.875Z,31.64
2018-07-30T19:02:08.907Z,31.39
2018-07-30T19:04:37.004Z,31.90
2018-07-30T19:07:05.024Z,31.78
2018-07-30T19:09:33.071Z,32.33
2018-07-30T19:12:01.094Z,32.47
2018-07-30T19:14:29.122Z,32.52
2018-07-30T19:16:57.206Z,33.40
2018-07-30T19:19:25.243Z,33.81
2018-07-30T19:21:53.291Z,34.15
2018-07-30T19:24:21.703Z,34.16
2018-07-30T19:26:50.312Z,34.34
2018-07-30T19:29:19.476Z,35.05
2018-07-30T19:31:47.760Z,34.32
2018-07-30T19:34:16.025Z,34.41
2018-07-30T19:36:44.105Z,34.48
2018-07-30T19:39:13.451Z,35.19
2018-07-30T19:41:41.523Z,34.60
2018-07-30T19:44:09.813Z,35.20
2018-07-30T19:46:38.199Z,35.10
2018-07-30T19:49:06.778Z,35.46
2018-07-30T19:51:35.149Z,35.92
2018-07-30T19:54:03.200Z,35.99
2018-07-30T19:56:31.328Z,37.19
2018-07-30T19:58:59.572Z,36.13
2018-07-30T20:01:27.422Z,37.31
2018-07-30T20:03:55.555Z,37.64
2018-07-30T20:06:23.610Z,37.00
2018-07-30T20:08:51.707Z,37.83
2018-07-30T20:11:19.783Z,37.63
2018-07-30T20:13:47.811Z,38.41
2018-07-30T20:16:15.986Z,37.44
2018-07-30T20:18:44.088Z,38.19
2018-07-30T20:21:12.113Z,38.26
2018-07-30T20:23:40.211Z,38.20
2018-07-30T20:26:08.399Z,38.05
2018-07-30T20:28:36.803Z,38.66
2018-07-30T20:31:05.065Z,39.16
2018-07-30T20:33:33.170Z,39.36
2018-07-30T20:36:01.201Z,39.86
2018-07-30T20:38:29.410Z,39.91
2018-07-30T20:40:57.729Z,40.82
2018-07-30T20:43:26.032Z,40.57
2018-07-30T20:45:54.188Z,40.85
2018-07-30T20:48:22.497Z,41.85
2018-07-30T20:50:50.797Z,42.17
2018-07-30T20:53:21.254Z,42.54
2018-07-30T20:55:50.476Z,42.54
2018-07-30T20:58:19.326Z,42.15
2018-07-30T21:00:47.440Z,42.78
2018-07-30T21:03:15.507Z,43.49
2018-07-30T21:05:44.331Z,43.52
2018-07-30T21:08:14.432Z,44.01
2018-07-30T21:10:43.628Z,45.11
2018-07-30T21:13:11.942Z,45.18
2018-07-30T21:15:40.340Z,46.85
2018-07-30T21:18:08.383Z,46.91
2018-07-30T21:20:36.551Z,46.36
2018-07-30T21:23:05.635Z,47.67
2018-07-30T21:25:33.673Z,49.03
2018-07-30T21:28:01.707Z,49.82
2018-07-30T21:30:30.072Z,50.18
2018-07-30T21:32:58.236Z,48.78
2018-07-30T21:35:26.265Z,49.79
2018-07-30T21:37:54.547Z,49.40
2018-07-30T21:40:22.653Z,49.44
2018-07-30T21:42:51.171Z,51.60
2018-07-30T21:45:20.886Z,51.22
2018-07-30T21:47:49.715Z,53.15
2018-07-30T21:50:17.990Z,51.22
2018-07-30T21:52:47.059Z,51.76
2018-07-30T21:55:15.523Z,51.89
2018-07-30T21:57:43.919Z,51.76
2018-07-30T22:00:17.019Z,51.70
2018-07-30T22:02:45.222Z,52.17
2018-07-30T22:05:15.512Z,51.74
2018-07-30T22:07:44.341Z,52.20
2018-07-30T22:10:12.444Z,51.52
2018-07-30T22:12:41.123Z,52.39
2018-07-30T22:15:10.176Z,52.10
2018-07-30T22:17:38.628Z,52.50
2018-07-30T22:20:06.997Z,52.12
2018-07-30T22:22:35.709Z,53.28
2018-07-30T22:25:03.799Z,52.06
2018-07-30T22:27:31.844Z,51.89
2018-07-30T22:30:00.892Z,51.84
2018-07-30T22:32:29.158Z,52.43
2018-07-30T22:34:57.548Z,52.94
2018-07-30T22:37:25.640Z,53.91
2018-07-30T22:39:54.353Z,53.74
2018-07-30T22:42:22.447Z,53.25
2018-07-30T22:44:50.483Z,52.93
2018-07-30T22:47:18.512Z,52.80
2018-07-30T22:49:47.141Z,53.37
2018-07-30T22:52:15.398Z,53.40
2018-07-30T22:54:43.507Z,54.34
2018-07-30T22:57:11.559Z,53.62
2018-07-30T22:59:39.598Z,53.60
2018-07-30T23:02:07.740Z,53.84
2018-07-30T23:04:35.819Z,53.39
2018-07-30T23:07:04.111Z,53.80
2018-07-30T23:09:32.671Z,53.28
2018-07-30T23:12:01.460Z,54.07
2018-07-30T23:14:29.983Z,53.46
2018-07-30T23:16:58.509Z,53.75
2018-07-30T23:19:27.463Z,53.91
2018-07-30T23:21:55.979Z,54.02
2018-07-30T23:24:24.808Z,54.10
2018-07-30T23:26:53.983Z,53.70
2018-07-30T23:29:22.563Z,54.44
2018-07-30T23:31:51.310Z,54.94
2018-07-30T23:34:22.314Z,54.47
2018-07-30T23:36:52.377Z,54.93
2018-07-30T23:39:20.624Z,55.63
2018-07-30T23:41:50.348Z,56.13
2018-07-30T23:44:19.817Z,56.54
2018-07-30T23:46:48.027Z,55.97
2018-07-30T23:49:16.166Z,56.12
2018-07-30T23:51:44.272Z,55.80
2018-07-30T23:54:12.315Z,56.98
2018-07-30T23:56:40.475Z,56.53
2018-07-30T23:59:08.507Z,56.56
